createdAt,value
2017-01-24T00:00:37.523Z,1020.31
2017-01-24T00:01:49.313Z,1020.27
2017-01-24T00:03:00.469Z,1020.23
2017-01-24T00:04:11.322Z,1020.2
2017-01-24T00:05:22.561Z,1020.22
2017-01-24T00:06:33.533Z,1020.2
2017-01-24T00:07:46.274Z,1020.24
2017-01-24T00:08:56.343Z,1020.24
2017-01-24T00:10:07.390Z,1020.3
2017-01-24T00:11:20.422Z,1020.31
2017-01-24T00:12:32.120Z,1020.3
2017-01-24T00:13:44.385Z,1020.29
2017-01-24T00:14:57.297Z,1020.34
2017-01-24T00:16:08.552Z,1020.35
2017-01-24T00:17:20.126Z,1020.39
2017-01-24T00:18:33.295Z,1020.38
2017-01-24T00:19:45.052Z,1020.37
2017-01-24T00:20:57.336Z,1020.36
2017-01-24T00:22:08.230Z,1020.3
2017-01-24T00:23:19.132Z,1020.33
2017-01-24T00:24:30.787Z,1020.31
2017-01-24T00:25:44.973Z,1020.25
2017-01-24T00:26:55.794Z,1020.33
2017-01-24T00:28:05.437Z,1020.31
2017-01-24T00:29:16.255Z,1020.29
2017-01-24T00:30:29.202Z,1020.3
2017-01-24T00:31:38.469Z,1020.31
2017-01-24T00:32:49.078Z,1020.31
2017-01-24T00:34:00.327Z,1020.29
2017-01-24T00:35:09.919Z,1020.34
2017-01-24T00:36:20.748Z,1020.34
2017-01-24T00:37:31.474Z,1020.35
2017-01-24T00:38:41.794Z,1020.38
2017-01-24T00:39:52.420Z,1020.4
2017-01-24T00:41:02.964Z,1020.4
2017-01-24T00:42:14.988Z,1020.36
2017-01-24T00:43:29.011Z,1020.36
2017-01-24T00:44:40.165Z,1020.38
2017-01-24T00:45:49.354Z,1020.37
2017-01-24T00:46:59.384Z,1020.43
2017-01-24T00:48:09.320Z,1020.4
2017-01-24T00:49:19.933Z,1020.45
2017-01-24T00:50:30.933Z,1020.47
2017-01-24T00:51:41.481Z,1020.47
2017-01-24T00:52:52.301Z,1020.46
2017-01-24T00:54:02.799Z,1020.42
2017-01-24T00:55:13.852Z,1020.44
2017-01-24T00:56:26.036Z,1020.4
2017-01-24T00:57:37.426Z,1020.4
2017-01-24T00:58:47.868Z,1020.4
2017-01-24T00:59:57.808Z,1020.43
2017-01-24T01:01:08.963Z,1020.46
2017-01-24T01:02:17.961Z,1020.45
2017-01-24T01:03:26.946Z,1020.46
2017-01-24T01:04:37.127Z,1020.54
2017-01-24T01:05:46.113Z,1020.51
2017-01-24T01:06:55.070Z,1020.45
2017-01-24T01:08:04.022Z,1020.49
2017-01-24T01:09:12.974Z,1020.51
2017-01-24T01:10:21.928Z,1020.53
2017-01-24T01:11:30.887Z,1020.52
2017-01-24T01:12:39.840Z,1020.54
2017-01-24T01:13:48.879Z,1020.55
2017-01-24T01:14:57.832Z,1020.56
2017-01-24T01:16:06.788Z,1020.51
2017-01-24T01:17:15.737Z,1020.53
2017-01-24T01:18:24.708Z,1020.52
2017-01-24T01:19:33.653Z,1020.53
2017-01-24T01:20:42.600Z,1020.57
2017-01-24T01:21:51.556Z,1020.61
2017-01-24T01:23:00.510Z,1020.61
2017-01-24T01:24:09.463Z,1020.67
2017-01-24T01:25:18.522Z,1020.66
2017-01-24T01:26:27.900Z,1020.64
2017-01-24T01:27:36.880Z,1020.66
2017-01-24T01:28:45.839Z,1020.69
2017-01-24T01:29:54.794Z,1020.66
2017-01-24T01:31:03.836Z,1020.65
2017-01-24T01:32:12.782Z,1020.65
2017-01-24T01:33:21.733Z,1020.64
2017-01-24T01:34:30.687Z,1020.64
2017-01-24T01:35:39.636Z,1020.69
2017-01-24T01:36:48.594Z,1020.67
2017-01-24T01:37:57.543Z,1020.61
2017-01-24T01:39:06.583Z,1020.68
2017-01-24T01:40:15.542Z,1020.67
2017-01-24T01:41:24.497Z,1020.65
2017-01-24T01:42:33.447Z,1020.65
2017-01-24T01:43:42.482Z,1020.67
2017-01-24T01:44:51.436Z,1020.69
2017-01-24T01:46:00.408Z,1020.68
2017-01-24T01:47:09.371Z,1020.62
2017-01-24T01:48:18.321Z,1020.63
2017-01-24T01:49:27.295Z,1020.61
2017-01-24T01:50:36.251Z,1020.63
2017-01-24T01:51:45.201Z,1020.62
2017-01-24T01:52:54.150Z,1020.61
2017-01-24T01:54:03.098Z,1020.6
2017-01-24T01:55:12.143Z,1020.56
2017-01-24T01:56:21.095Z,1020.57
2017-01-24T01:57:30.047Z,1020.61
2017-01-24T01:58:38.998Z,1020.57
2017-01-24T01:59:47.951Z,1020.58
2017-01-24T02:00:56.903Z,1020.55
2017-01-24T02:02:05.853Z,1020.57
2017-01-24T02:03:14.805Z,1020.53
2017-01-24T02:04:23.755Z,1020.53
2017-01-24T02:05:32.794Z,1020.54
2017-01-24T02:06:41.745Z,1020.49
2017-01-24T02:07:51.113Z,1020.53
2017-01-24T02:09:00.150Z,1020.54
2017-01-24T02:10:09.103Z,1020.5
2017-01-24T02:11:18.069Z,1020.5
2017-01-24T02:12:27.023Z,1020.49
2017-01-24T02:13:35.977Z,1020.5
2017-01-24T02:14:44.930Z,1020.47
2017-01-24T02:15:53.879Z,1020.4
2017-01-24T02:17:02.861Z,1020.44
2017-01-24T02:18:11.815Z,1020.41
2017-01-24T02:19:20.766Z,1020.46
2017-01-24T02:20:29.739Z,1020.45
2017-01-24T02:21:38.694Z,1020.49
2017-01-24T02:22:47.647Z,1020.56
2017-01-24T02:23:56.600Z,1020.51
2017-01-24T02:25:05.550Z,1020.55
2017-01-24T02:26:14.498Z,1020.55
2017-01-24T02:27:23.452Z,1020.5
2017-01-24T02:28:32.433Z,1020.48
2017-01-24T02:29:41.385Z,1020.46
2017-01-24T02:30:50.426Z,1020.51
2017-01-24T02:31:59.379Z,1020.45
2017-01-24T02:33:08.336Z,1020.42
2017-01-24T02:34:17.294Z,1020.46
2017-01-24T02:35:26.257Z,1020.41
2017-01-24T02:36:35.303Z,1020.45
2017-01-24T02:37:44.253Z,1020.46
2017-01-24T02:38:53.206Z,1020.48
2017-01-24T02:40:02.158Z,1020.45
2017-01-24T02:41:11.114Z,1020.45
2017-01-24T02:42:20.068Z,1020.48
2017-01-24T02:43:29.200Z,1020.48
2017-01-24T02:44:38.162Z,1020.47
2017-01-24T02:45:47.112Z,1020.48
2017-01-24T02:46:56.061Z,1020.46
2017-01-24T02:48:05.009Z,1020.49
2017-01-24T02:49:13.966Z,1020.47
2017-01-24T02:50:22.926Z,1020.46
2017-01-24T02:51:31.876Z,1020.41
2017-01-24T02:52:41.006Z,1020.34
2017-01-24T02:53:49.957Z,1020.38
2017-01-24T02:54:58.929Z,1020.4
2017-01-24T02:56:07.879Z,1020.43
2017-01-24T02:57:16.857Z,1020.4
2017-01-24T02:58:25.819Z,1020.41
2017-01-24T02:59:34.768Z,1020.43
2017-01-24T03:00:43.723Z,1020.41
2017-01-24T03:01:52.678Z,1020.43
2017-01-24T03:03:01.630Z,1020.45
2017-01-24T03:04:10.584Z,1020.48
2017-01-24T03:05:19.542Z,1020.43
2017-01-24T03:06:28.494Z,1020.51
2017-01-24T03:07:37.447Z,1020.51
2017-01-24T03:08:46.408Z,1020.51
2017-01-24T03:09:55.356Z,1020.45
2017-01-24T03:11:04.319Z,1020.47
2017-01-24T03:12:13.275Z,1020.43
2017-01-24T03:13:22.227Z,1020.47
2017-01-24T03:14:31.182Z,1020.43
2017-01-24T03:15:40.133Z,1020.39
2017-01-24T03:16:49.085Z,1020.38
2017-01-24T03:17:58.036Z,1020.37
2017-01-24T03:19:06.988Z,1020.45
2017-01-24T03:20:15.935Z,1020.43
2017-01-24T03:21:24.888Z,1020.47
2017-01-24T03:22:33.845Z,1020.48
2017-01-24T03:23:42.798Z,1020.46
2017-01-24T03:24:51.750Z,1020.43
2017-01-24T03:26:00.706Z,1020.44
2017-01-24T03:27:09.661Z,1020.43
2017-01-24T03:28:18.613Z,1020.45
2017-01-24T03:29:27.565Z,1020.54
2017-01-24T03:30:36.517Z,1020.56
2017-01-24T03:31:45.476Z,1020.56
2017-01-24T03:32:54.427Z,1020.43
2017-01-24T03:34:03.383Z,1020.44
2017-01-24T03:35:12.345Z,1020.42
2017-01-24T03:36:21.300Z,1020.48
2017-01-24T03:37:30.249Z,1020.45
2017-01-24T03:38:39.205Z,1020.5
2017-01-24T03:39:48.155Z,1020.51
2017-01-24T03:40:57.106Z,1020.54
2017-01-24T03:42:06.056Z,1020.51
2017-01-24T03:43:15.018Z,1020.47
2017-01-24T03:44:23.973Z,1020.49
2017-01-24T03:45:32.923Z,1020.53
2017-01-24T03:46:41.873Z,1020.51
2017-01-24T03:47:50.824Z,1020.55
2017-01-24T03:48:59.778Z,1020.5
2017-01-24T03:50:08.725Z,1020.54
2017-01-24T03:51:17.681Z,1020.49
2017-01-24T03:52:26.631Z,1020.53
2017-01-24T03:53:35.579Z,1020.51
2017-01-24T03:54:44.541Z,1020.51
2017-01-24T03:55:53.496Z,1020.56
2017-01-24T03:57:02.445Z,1020.56
2017-01-24T03:58:11.486Z,1020.58
2017-01-24T03:59:20.436Z,1020.62
2017-01-24T04:00:29.387Z,1020.64
2017-01-24T04:01:38.337Z,1020.6
2017-01-24T04:02:47.296Z,1020.6
2017-01-24T04:03:56.247Z,1020.61
2017-01-24T04:05:05.207Z,1020.63
2017-01-24T04:06:14.176Z,1020.6
2017-01-24T04:07:23.129Z,1020.55
2017-01-24T04:08:32.079Z,1020.55
2017-01-24T04:09:41.026Z,1020.54
2017-01-24T04:10:49.980Z,1020.52
2017-01-24T04:11:58.933Z,1020.56
2017-01-24T04:13:07.972Z,1020.58
2017-01-24T04:14:16.926Z,1020.57
2017-01-24T04:15:25.877Z,1020.57
2017-01-24T04:16:34.919Z,1020.58
2017-01-24T04:17:43.871Z,1020.58
2017-01-24T04:18:52.823Z,1020.61
2017-01-24T04:20:01.778Z,1020.52
2017-01-24T04:21:10.725Z,1020.53
2017-01-24T04:22:19.673Z,1020.55
2017-01-24T04:23:28.717Z,1020.51
2017-01-24T04:24:37.672Z,1020.52
2017-01-24T04:25:46.638Z,1020.55
2017-01-24T04:26:55.592Z,1020.5
2017-01-24T04:28:04.549Z,1020.46
2017-01-24T04:29:13.505Z,1020.48
2017-01-24T04:30:22.457Z,1020.45
2017-01-24T04:31:31.411Z,1020.51
2017-01-24T04:32:40.459Z,1020.55
2017-01-24T04:33:49.416Z,1020.57
2017-01-24T04:34:58.388Z,1020.56
2017-01-24T04:36:07.425Z,1020.58
2017-01-24T04:37:16.377Z,1020.55
2017-01-24T04:38:25.332Z,1020.57
2017-01-24T04:39:34.290Z,1020.56
2017-01-24T04:40:43.245Z,1020.5
2017-01-24T04:41:52.195Z,1020.56
2017-01-24T04:43:01.147Z,1020.52
2017-01-24T04:44:10.097Z,1020.56
2017-01-24T04:45:19.046Z,1020.54
2017-01-24T04:46:28.001Z,1020.58
2017-01-24T04:47:36.957Z,1020.57
2017-01-24T04:48:45.997Z,1020.59
2017-01-24T04:49:55.068Z,1020.61
2017-01-24T04:51:04.032Z,1020.58
2017-01-24T04:52:12.993Z,1020.61
2017-01-24T04:53:21.943Z,1020.62
2017-01-24T04:54:30.892Z,1020.59
2017-01-24T04:55:39.841Z,1020.54
2017-01-24T04:56:48.793Z,1020.58
2017-01-24T04:57:57.746Z,1020.56
2017-01-24T04:59:06.704Z,1020.6
2017-01-24T05:00:15.652Z,1020.58
2017-01-24T05:01:24.600Z,1020.62
2017-01-24T05:02:33.584Z,1020.57
2017-01-24T05:03:42.533Z,1020.55
2017-01-24T05:04:51.571Z,1020.61
2017-01-24T05:06:00.605Z,1020.58
2017-01-24T05:07:09.558Z,1020.6
2017-01-24T05:08:18.510Z,1020.66
2017-01-24T05:09:27.546Z,1020.71
2017-01-24T05:10:36.499Z,1020.66
2017-01-24T05:11:45.459Z,1020.67
2017-01-24T05:12:54.461Z,1020.69
2017-01-24T05:14:03.434Z,1020.68
2017-01-24T05:15:12.389Z,1020.7
2017-01-24T05:16:21.343Z,1020.68
2017-01-24T05:17:30.293Z,1020.67
2017-01-24T05:18:39.243Z,1020.69
2017-01-24T05:19:48.279Z,1020.75
2017-01-24T05:20:57.227Z,1020.7
2017-01-24T05:22:06.197Z,1020.76
2017-01-24T05:23:15.149Z,1020.73
2017-01-24T05:24:24.098Z,1020.78
2017-01-24T05:25:33.055Z,1020.75
2017-01-24T05:26:42.004Z,1020.77
2017-01-24T05:27:50.958Z,1020.78
2017-01-24T05:28:59.908Z,1020.78
2017-01-24T05:30:08.864Z,1020.79
2017-01-24T05:31:17.817Z,1020.72
2017-01-24T05:32:26.769Z,1020.77
2017-01-24T05:33:35.723Z,1020.76
2017-01-24T05:34:44.672Z,1020.8
2017-01-24T05:35:53.624Z,1020.81
2017-01-24T05:37:02.578Z,1020.83
2017-01-24T05:38:11.570Z,1020.83
2017-01-24T05:39:20.520Z,1020.84
2017-01-24T05:40:29.501Z,1020.83
2017-01-24T05:41:38.457Z,1020.84
2017-01-24T05:42:47.408Z,1020.82
2017-01-24T05:43:56.375Z,1020.83
2017-01-24T05:45:05.323Z,1020.81
2017-01-24T05:46:14.278Z,1020.87
2017-01-24T05:47:23.226Z,1020.87
2017-01-24T05:48:32.176Z,1020.85
2017-01-24T05:49:41.131Z,1020.91
2017-01-24T05:50:50.174Z,1020.91
2017-01-24T05:51:59.131Z,1020.94
2017-01-24T05:53:08.085Z,1020.93
2017-01-24T05:54:17.059Z,1020.94
2017-01-24T05:55:26.008Z,1020.99
2017-01-24T05:56:34.960Z,1020.96
2017-01-24T05:57:43.912Z,1020.93
2017-01-24T05:58:52.867Z,1020.95
2017-01-24T06:00:01.819Z,1020.98
2017-01-24T06:01:10.775Z,1020.97
2017-01-24T06:02:19.728Z,1020.95
2017-01-24T06:03:28.680Z,1020.97
2017-01-24T06:04:37.641Z,1021
2017-01-24T06:05:46.595Z,1021.01
2017-01-24T06:06:55.647Z,1021.03
2017-01-24T06:08:04.597Z,1021.03
2017-01-24T06:09:13.553Z,1021.01
2017-01-24T06:10:22.587Z,1020.98
2017-01-24T06:11:31.536Z,1020.99
2017-01-24T06:12:40.577Z,1021.03
2017-01-24T06:13:49.524Z,1021.02
2017-01-24T06:14:58.473Z,1021
2017-01-24T06:16:07.445Z,1021.06
2017-01-24T06:17:16.399Z,1021.02
2017-01-24T06:18:25.439Z,1021.04
2017-01-24T06:19:34.394Z,1021.04
2017-01-24T06:20:43.349Z,1021.07
2017-01-24T06:21:52.305Z,1021.07
2017-01-24T06:23:01.341Z,1021.04
2017-01-24T06:24:10.296Z,1021.06
2017-01-24T06:25:19.266Z,1021.08
2017-01-24T06:26:28.216Z,1021.12
2017-01-24T06:27:37.579Z,1021.17
2017-01-24T06:28:46.531Z,1021.13
2017-01-24T06:29:55.489Z,1021.13
2017-01-24T06:31:04.445Z,1021.15
2017-01-24T06:32:13.397Z,1021.15
2017-01-24T06:33:22.346Z,1021.21
2017-01-24T06:34:31.302Z,1021.28
2017-01-24T06:35:40.258Z,1021.26
2017-01-24T06:36:49.217Z,1021.26
2017-01-24T06:37:58.172Z,1021.31
2017-01-24T06:39:07.124Z,1021.32
2017-01-24T06:40:16.072Z,1021.3
2017-01-24T06:41:25.024Z,1021.3
2017-01-24T06:42:33.978Z,1021.33
2017-01-24T06:43:42.934Z,1021.34
2017-01-24T06:44:51.882Z,1021.38
2017-01-24T06:46:00.840Z,1021.38
2017-01-24T06:47:09.882Z,1021.42
2017-01-24T06:48:18.834Z,1021.37
2017-01-24T06:49:27.786Z,1021.37
2017-01-24T06:50:36.732Z,1021.4
2017-01-24T06:51:45.685Z,1021.42
2017-01-24T06:52:54.639Z,1021.39
2017-01-24T06:54:03.589Z,1021.44
2017-01-24T06:55:12.543Z,1021.45
2017-01-24T06:56:21.495Z,1021.47
2017-01-24T06:57:30.453Z,1021.49
2017-01-24T06:58:39.408Z,1021.5
2017-01-24T06:59:48.367Z,1021.54
2017-01-24T07:00:57.319Z,1021.5
2017-01-24T07:02:06.267Z,1021.56
2017-01-24T07:03:15.224Z,1021.58
2017-01-24T07:04:24.176Z,1021.59
2017-01-24T07:05:33.132Z,1021.62
2017-01-24T07:06:42.086Z,1021.69
2017-01-24T07:07:51.041Z,1021.72
2017-01-24T07:08:59.990Z,1021.76
2017-01-24T07:10:08.944Z,1021.77
2017-01-24T07:11:17.984Z,1021.76
2017-01-24T07:12:26.936Z,1021.79
2017-01-24T07:13:36.378Z,1021.8
2017-01-24T07:14:45.417Z,1021.79
2017-01-24T07:15:54.371Z,1021.8
2017-01-24T07:17:03.407Z,1021.85
2017-01-24T07:18:12.365Z,1021.86
2017-01-24T07:19:22.367Z,1021.89
2017-01-24T07:20:32.334Z,1021.87
2017-01-24T07:21:41.945Z,1021.87
2017-01-24T07:22:51.571Z,1021.91
2017-01-24T07:24:01.204Z,1021.92
2017-01-24T07:25:10.763Z,1021.95
2017-01-24T07:26:20.521Z,1021.91
2017-01-24T07:27:29.835Z,1021.96
2017-01-24T07:28:38.788Z,1021.94
2017-01-24T07:29:47.742Z,1021.95
2017-01-24T07:30:57.473Z,1021.97
2017-01-24T07:32:09.651Z,1022
2017-01-24T07:33:18.613Z,1021.93
2017-01-24T07:34:27.837Z,1022
2017-01-24T07:35:37.510Z,1021.99
2017-01-24T07:36:48.658Z,1022
2017-01-24T07:37:59.397Z,1022.03
2017-01-24T07:39:09.970Z,1022.07
2017-01-24T07:40:19.351Z,1022.07
2017-01-24T07:41:29.572Z,1022.09
2017-01-24T07:42:40.695Z,1022.09
2017-01-24T07:43:50.405Z,1022.06
2017-01-24T07:45:00.980Z,1022.06
2017-01-24T07:46:10.954Z,1022.04
2017-01-24T07:47:20.336Z,1022.07
2017-01-24T07:48:29.532Z,1022.13
2017-01-24T07:49:42.093Z,1022.13
2017-01-24T07:50:54.778Z,1022.17
2017-01-24T07:52:04.687Z,1022.18
2017-01-24T07:53:14.743Z,1022.27
2017-01-24T07:54:25.303Z,1022.24
2017-01-24T07:55:35.590Z,1022.25
2017-01-24T07:56:45.235Z,1022.26
2017-01-24T07:57:54.586Z,1022.29
2017-01-24T07:59:04.500Z,1022.25
2017-01-24T08:00:14.926Z,1022.29
2017-01-24T08:01:24.525Z,1022.31
2017-01-24T08:02:33.981Z,1022.32
2017-01-24T08:03:43.625Z,1022.27
2017-01-24T08:04:53.505Z,1022.34
2017-01-24T08:06:03.061Z,1022.37
2017-01-24T08:07:13.227Z,1022.38
2017-01-24T08:08:22.181Z,1022.37
2017-01-24T08:09:31.134Z,1022.38
2017-01-24T08:10:40.093Z,1022.38
2017-01-24T08:11:49.174Z,1022.38
2017-01-24T08:12:58.126Z,1022.34
2017-01-24T08:14:07.085Z,1022.39
2017-01-24T08:15:16.378Z,1022.4
2017-01-24T08:16:25.606Z,1022.42
2017-01-24T08:17:34.662Z,1022.39
2017-01-24T08:18:43.614Z,1022.41
2017-01-24T08:19:53.092Z,1022.41
2017-01-24T08:21:02.459Z,1022.44
2017-01-24T08:22:11.413Z,1022.48
2017-01-24T08:23:20.671Z,1022.47
2017-01-24T08:24:29.701Z,1022.49
2017-01-24T08:25:38.661Z,1022.5
2017-01-24T08:26:47.618Z,1022.48
2017-01-24T08:27:56.570Z,1022.47
2017-01-24T08:29:05.621Z,1022.5
2017-01-24T08:30:14.608Z,1022.52
2017-01-24T08:31:23.563Z,1022.52
2017-01-24T08:32:32.518Z,1022.52
2017-01-24T08:33:41.506Z,1022.54
2017-01-24T08:34:50.461Z,1022.59
2017-01-24T08:35:59.485Z,1022.6
2017-01-24T08:37:08.437Z,1022.61
2017-01-24T08:38:17.409Z,1022.61
2017-01-24T08:39:26.364Z,1022.63
2017-01-24T08:40:35.317Z,1022.61
2017-01-24T08:41:44.361Z,1022.67
2017-01-24T08:42:53.338Z,1022.63
2017-01-24T08:44:02.337Z,1022.66
2017-01-24T08:45:11.990Z,1022.65
2017-01-24T08:46:21.242Z,1022.63
2017-01-24T08:47:30.202Z,1022.61
2017-01-24T08:48:39.334Z,1022.58
2017-01-24T08:49:48.288Z,1022.63
2017-01-24T08:50:57.241Z,1022.64
2017-01-24T08:52:06.198Z,1022.64
2017-01-24T08:53:15.186Z,1022.61
2017-01-24T08:54:24.147Z,1022.62
2017-01-24T08:55:33.093Z,1022.64
2017-01-24T08:56:42.811Z,1022.57
2017-01-24T08:57:51.769Z,1022.62
2017-01-24T08:59:00.727Z,1022.63
2017-01-24T09:00:09.685Z,1022.65
2017-01-24T09:01:18.646Z,1022.68
2017-01-24T09:02:27.738Z,1022.7
2017-01-24T09:03:39.963Z,1022.72
2017-01-24T09:05:02.617Z,1022.78
2017-01-24T09:06:22.704Z,1022.8
2017-01-24T09:07:35.427Z,1022.79
2017-01-24T09:08:54.182Z,1022.77
2017-01-24T09:10:03.265Z,1022.8
2017-01-24T09:11:13.725Z,1022.79
2017-01-24T09:12:22.768Z,1022.82
2017-01-24T09:13:31.724Z,1022.8
2017-01-24T09:14:40.690Z,1022.79
2017-01-24T09:15:49.644Z,1022.8
2017-01-24T09:16:58.602Z,1022.83
2017-01-24T09:18:07.560Z,1022.77
2017-01-24T09:19:16.520Z,1022.82
2017-01-24T09:20:25.559Z,1022.79
2017-01-24T09:21:34.516Z,1022.84
2017-01-24T09:22:43.507Z,1022.84
2017-01-24T09:23:52.454Z,1022.85
2017-01-24T09:25:01.404Z,1022.87
2017-01-24T09:26:10.362Z,1022.88
2017-01-24T09:27:19.320Z,1022.88
2017-01-24T09:28:28.280Z,1022.92
2017-01-24T09:29:37.239Z,1022.92
2017-01-24T09:30:46.193Z,1022.9
2017-01-24T09:31:55.147Z,1022.89
2017-01-24T09:33:04.101Z,1022.87
2017-01-24T09:34:13.056Z,1022.84
2017-01-24T09:35:22.008Z,1022.82
2017-01-24T09:36:30.957Z,1022.83
2017-01-24T09:37:39.907Z,1022.82
2017-01-24T09:38:48.864Z,1022.85
2017-01-24T09:39:58.187Z,1022.88
2017-01-24T09:41:07.146Z,1022.86
2017-01-24T09:42:16.102Z,1022.82
2017-01-24T09:43:25.057Z,1022.82
2017-01-24T09:44:34.007Z,1022.83
2017-01-24T09:45:43.658Z,1022.85
2017-01-24T09:46:52.884Z,1022.84
2017-01-24T09:48:01.848Z,1022.86
2017-01-24T09:49:11.061Z,1022.84
2017-01-24T09:50:20.496Z,1022.87
2017-01-24T09:51:29.452Z,1022.87
2017-01-24T09:52:38.406Z,1022.92
2017-01-24T09:53:47.844Z,1022.9
2017-01-24T09:54:56.795Z,1022.97
2017-01-24T09:56:06.138Z,1023
2017-01-24T09:57:15.091Z,1022.99
2017-01-24T09:58:24.486Z,1023.02
2017-01-24T09:59:33.439Z,1022.99
2017-01-24T10:00:42.391Z,1023.02
2017-01-24T10:01:51.338Z,1022.98
2017-01-24T10:03:00.288Z,1023.04
2017-01-24T10:04:09.236Z,1023.03
2017-01-24T10:05:18.193Z,1023
2017-01-24T10:06:27.171Z,1023.02
2017-01-24T10:07:36.285Z,1023.02
2017-01-24T10:08:45.277Z,1023.03
2017-01-24T10:09:54.318Z,1023.06
2017-01-24T10:11:03.278Z,1023.07
2017-01-24T10:12:12.234Z,1023.07
2017-01-24T10:13:21.192Z,1023.08
2017-01-24T10:14:30.147Z,1023.04
2017-01-24T10:15:39.096Z,1022.98
2017-01-24T10:16:48.052Z,1022.97
2017-01-24T10:17:57.010Z,1022.93
2017-01-24T10:19:05.966Z,1022.96
2017-01-24T10:20:14.948Z,1022.97
2017-01-24T10:21:23.906Z,1023.02
2017-01-24T10:22:32.865Z,1023.04
2017-01-24T10:23:41.821Z,1023.02
2017-01-24T10:24:50.786Z,1023.03
2017-01-24T10:25:59.935Z,1022.99
2017-01-24T10:27:08.899Z,1023.03
2017-01-24T10:28:18.264Z,1023
2017-01-24T10:29:27.220Z,1023.01
2017-01-24T10:30:36.665Z,1023.02
2017-01-24T10:31:46.160Z,1023.06
2017-01-24T10:32:55.314Z,1023.14
2017-01-24T10:34:04.461Z,1023.14
2017-01-24T10:35:13.414Z,1023.13
2017-01-24T10:36:22.391Z,1023.13
2017-01-24T10:37:31.615Z,1023.16
2017-01-24T10:38:40.604Z,1023.15
2017-01-24T10:39:49.939Z,1023.16
2017-01-24T10:40:59.998Z,1023.15
2017-01-24T10:42:09.155Z,1023.12
2017-01-24T10:43:18.200Z,1023.11
2017-01-24T10:44:27.627Z,1023.14
2017-01-24T10:45:36.660Z,1023.12
2017-01-24T10:46:45.710Z,1023.1
2017-01-24T10:47:54.674Z,1023.11
2017-01-24T10:49:03.643Z,1023.16
2017-01-24T10:50:12.600Z,1023.15
2017-01-24T10:51:21.552Z,1023.19
2017-01-24T10:52:30.506Z,1023.2
2017-01-24T10:53:39.547Z,1023.18
2017-01-24T10:54:48.499Z,1023.18
2017-01-24T10:55:57.449Z,1023.19
2017-01-24T10:57:06.429Z,1023.12
2017-01-24T10:58:15.388Z,1023.14
2017-01-24T10:59:24.368Z,1023.1
2017-01-24T11:00:33.324Z,1023.13
2017-01-24T11:01:42.278Z,1023.18
2017-01-24T11:02:51.235Z,1023.15
2017-01-24T11:04:00.413Z,1023.09
2017-01-24T11:05:09.374Z,1023.14
2017-01-24T11:06:18.336Z,1023.14
2017-01-24T11:07:27.291Z,1023.2
2017-01-24T11:08:36.323Z,1023.13
2017-01-24T11:09:45.632Z,1023.15
2017-01-24T11:10:54.700Z,1023.14
2017-01-24T11:12:03.660Z,1023.14
2017-01-24T11:13:12.615Z,1023.18
2017-01-24T11:14:21.572Z,1023.17
2017-01-24T11:15:30.527Z,1023.13
2017-01-24T11:16:39.656Z,1023.17
2017-01-24T11:17:49.891Z,1023.14
2017-01-24T11:18:58.870Z,1023.18
2017-01-24T11:20:07.826Z,1023.21
2017-01-24T11:21:16.781Z,1023.23
2017-01-24T11:22:25.809Z,1023.19
2017-01-24T11:23:34.808Z,1023.16
2017-01-24T11:24:43.794Z,1023.17
2017-01-24T11:25:52.751Z,1023.13
2017-01-24T11:27:01.705Z,1023.17
2017-01-24T11:28:10.660Z,1023.17
2017-01-24T11:29:19.614Z,1023.16
2017-01-24T11:30:28.570Z,1023.19
2017-01-24T11:31:37.521Z,1023.19
2017-01-24T11:32:46.474Z,1023.18
2017-01-24T11:33:55.430Z,1023.18
2017-01-24T11:35:04.471Z,1023.2
2017-01-24T11:36:13.428Z,1023.22
2017-01-24T11:37:22.398Z,1023.21
2017-01-24T11:38:31.441Z,1023.21
2017-01-24T11:39:40.396Z,1023.21
2017-01-24T11:40:49.351Z,1023.18
2017-01-24T11:41:58.331Z,1023.16
2017-01-24T11:43:07.289Z,1023.15
2017-01-24T11:44:16.248Z,1023.13
2017-01-24T11:45:25.199Z,1023.18
2017-01-24T11:46:34.156Z,1023.15
2017-01-24T11:47:43.125Z,1023.2
2017-01-24T11:48:52.078Z,1023.2
2017-01-24T11:50:01.036Z,1023.21
2017-01-24T11:51:09.991Z,1023.25
2017-01-24T11:52:18.949Z,1023.19
2017-01-24T11:53:27.906Z,1023.18
2017-01-24T11:54:36.862Z,1023.24
2017-01-24T11:55:46.011Z,1023.16
2017-01-24T11:56:55.501Z,1023.18
2017-01-24T11:58:04.951Z,1023.13
2017-01-24T11:59:16.210Z,1023.21
2017-01-24T12:00:26.060Z,1023.19
2017-01-24T12:01:36.287Z,1023.23
2017-01-24T12:02:45.376Z,1023.25
2017-01-24T12:03:55.363Z,1023.25
2017-01-24T12:05:05.041Z,1023.3
2017-01-24T12:06:14.499Z,1023.28
2017-01-24T12:07:24.174Z,1023.26
2017-01-24T12:08:35.388Z,1023.21
2017-01-24T12:09:45.700Z,1023.24
2017-01-24T12:10:55.090Z,1023.25
2017-01-24T12:12:04.727Z,1023.23
2017-01-24T12:13:14.354Z,1023.27
2017-01-24T12:14:23.467Z,1023.27
2017-01-24T12:15:34.101Z,1023.26
2017-01-24T12:16:43.417Z,1023.25
2017-01-24T12:17:52.393Z,1023.27
2017-01-24T12:19:03.099Z,1023.29
2017-01-24T12:20:12.050Z,1023.31
2017-01-24T12:21:21.008Z,1023.31
2017-01-24T12:22:30.304Z,1023.31
2017-01-24T12:23:39.518Z,1023.32
2017-01-24T12:24:51.638Z,1023.29
2017-01-24T12:26:00.607Z,1023.3
2017-01-24T12:27:09.566Z,1023.29
2017-01-24T12:28:18.518Z,1023.29
2017-01-24T12:29:28.059Z,1023.27
2017-01-24T12:30:38.876Z,1023.26
2017-01-24T12:31:49.446Z,1023.24
2017-01-24T12:33:02.121Z,1023.21
2017-01-24T12:34:12.480Z,1023.21
2017-01-24T12:35:22.896Z,1023.21
2017-01-24T12:36:32.579Z,1023.25
2017-01-24T12:37:42.270Z,1023.26
2017-01-24T12:38:51.222Z,1023.3
2017-01-24T12:40:00.178Z,1023.3
2017-01-24T12:41:09.132Z,1023.29
2017-01-24T12:42:18.081Z,1023.3
2017-01-24T12:43:27.036Z,1023.25
2017-01-24T12:44:35.986Z,1023.28
2017-01-24T12:45:44.981Z,1023.28
2017-01-24T12:46:54.022Z,1023.3
2017-01-24T12:48:02.982Z,1023.33
2017-01-24T12:49:11.936Z,1023.3
2017-01-24T12:50:20.890Z,1023.34
2017-01-24T12:51:29.848Z,1023.33
2017-01-24T12:52:38.805Z,1023.34
2017-01-24T12:53:47.764Z,1023.31
2017-01-24T12:54:56.716Z,1023.3
2017-01-24T12:56:05.672Z,1023.33
2017-01-24T12:57:14.717Z,1023.3
2017-01-24T12:58:23.669Z,1023.26
2017-01-24T12:59:32.617Z,1023.3
2017-01-24T13:00:41.564Z,1023.23
2017-01-24T13:01:50.524Z,1023.27
2017-01-24T13:02:59.588Z,1023.26
2017-01-24T13:04:08.544Z,1023.3
2017-01-24T13:05:17.502Z,1023.36
2017-01-24T13:06:26.455Z,1023.36
2017-01-24T13:07:35.405Z,1023.39
2017-01-24T13:08:44.902Z,1023.44
2017-01-24T13:09:54.294Z,1023.36
2017-01-24T13:11:03.491Z,1023.33
2017-01-24T13:12:12.849Z,1023.32
2017-01-24T13:13:22.398Z,1023.32
2017-01-24T13:14:31.720Z,1023.34
2017-01-24T13:15:41.072Z,1023.38
2017-01-24T13:16:50.752Z,1023.41
2017-01-24T13:17:59.705Z,1023.43
2017-01-24T13:19:08.886Z,1023.48
2017-01-24T13:20:18.048Z,1023.55
2017-01-24T13:21:27.695Z,1023.56
2017-01-24T13:22:38.792Z,1023.52
2017-01-24T13:23:51.637Z,1023.54
2017-01-24T13:25:01.216Z,1023.55
2017-01-24T13:26:10.826Z,1023.56
2017-01-24T13:27:20.573Z,1023.55
2017-01-24T13:28:31.006Z,1023.59
2017-01-24T13:29:41.495Z,1023.59
2017-01-24T13:30:50.449Z,1023.6
2017-01-24T13:31:59.405Z,1023.59
2017-01-24T13:33:08.363Z,1023.59
2017-01-24T13:34:17.319Z,1023.64
2017-01-24T13:35:26.301Z,1023.61
2017-01-24T13:36:35.538Z,1023.67
2017-01-24T13:37:46.772Z,1023.66
2017-01-24T13:38:55.724Z,1023.6
2017-01-24T13:40:04.706Z,1023.66
2017-01-24T13:41:13.719Z,1023.63
2017-01-24T13:42:22.676Z,1023.65
2017-01-24T13:43:31.630Z,1023.67
2017-01-24T13:44:40.587Z,1023.61
2017-01-24T13:45:49.540Z,1023.68
2017-01-24T13:46:58.497Z,1023.73
2017-01-24T13:48:07.698Z,1023.76
2017-01-24T13:49:20.610Z,1023.75
2017-01-24T13:50:30.018Z,1023.71
2017-01-24T13:51:38.974Z,1023.7
2017-01-24T13:52:47.959Z,1023.75
2017-01-24T13:53:57.015Z,1023.64
2017-01-24T13:55:05.970Z,1023.66
2017-01-24T13:56:14.919Z,1023.68
2017-01-24T13:57:23.965Z,1023.62
2017-01-24T13:58:32.925Z,1023.64
2017-01-24T13:59:41.905Z,1023.65
2017-01-24T14:00:50.857Z,1023.7
2017-01-24T14:01:59.830Z,1023.7